Аэропорт: Адлер. Сочи

ICAO: URSS

METAR:
2019-07-23 18:00:00
URSS 231800Z 15003MPS 9999 BKN015 OVC040CB 24/21 Q1009 WS ALL RWY R02/010070 R06/010070 NOSIG RMK R06/14005MPS MT OBSC QFE755
METAR:
2019-07-23 16:55:00
TAF URSS 231655Z 2318/2418 VRB01MPS 5000 -SHRA BR BKN011 BKN030CB OVC100 TEMPO 2318/2406 VRB05G10MPS 2100 -TSRA BR BKN007 BKN030CB OVC100 FM240600 15006G11MPS 9999 SCT015 BKN030CB BKN100 TEMPO 2406/2409 -TSRA FM241500 VRB01MPS 9999 BKN030CB OVC100 TEMPO 2415/2418 VRB07G12MPS 2100 -TSRA BKN011 BKN030CB OVC100